sensor_id;sensor_type;location;lat;lon;timestamp;pressure;altitude;pressure_sealevel;temperature;humidity
53514;BME280;39768;54.148;12.174;2022-12-07T00:03:49;101041.00;;;4.87;100.00
53514;BME280;39768;54.148;12.174;2022-12-07T00:07:52;101043.59;;;4.84;100.00
53514;BME280;39768;54.148;12.174;2022-12-07T00:11:53;101031.97;;;4.68;100.00
53514;BME280;39768;54.148;12.174;2022-12-07T00:15:55;101029.44;;;4.74;100.00
53514;BME280;39768;54.148;12.174;2022-12-07T00:19:56;101016.94;;;4.59;100.00
53514;BME280;39768;54.148;12.174;2022-12-07T00:23:58;101017.00;;;4.64;100.00
53514;BME280;39768;54.148;12.174;2022-12-07T00:28:00;101014.41;;;4.67;100.00
53514;BME280;39768;54.148;12.174;2022-12-07T00:32:01;101005.34;;;4.47;100.00
53514;BME280;39768;54.148;12.174;2022-12-07T00:36:05;100995.81;;;4.53;100.00
53514;BME280;39768;54.148;12.174;2022-12-07T00:40:08;100993.94;;;4.45;100.00
53514;BME280;39768;54.148;12.174;2022-12-07T00:44:09;100984.59;;;4.65;100.00
53514;BME280;39768;54.148;12.174;2022-12-07T00:48:11;100981.47;;;4.33;100.00
53514;BME280;39768;54.148;12.174;2022-12-07T00:52:12;100975.25;;;4.25;100.00
53514;BME280;39768;54.148;12.174;2022-12-07T00:56:17;100970.53;;;4.06;100.00
53514;BME280;39768;54.148;12.174;2022-12-07T01:00:19;100963.69;;;4.14;100.00
53514;BME280;39768;54.148;12.174;2022-12-07T01:04:21;100957.50;;;4.12;100.00
53514;BME280;39768;54.148;12.174;2022-12-07T01:08:23;100948.59;;;4.02;100.00
53514;BME280;39768;54.148;12.174;2022-12-07T01:12:25;100950.72;;;3.73;100.00
53514;BME280;39768;54.148;12.174;2022-12-07T01:16:28;100944.19;;;4.00;100.00
53514;BME280;39768;54.148;12.174;2022-12-07T01:20:30;100952.38;;;4.19;100.00
53514;BME280;39768;54.148;12.174;2022-12-07T01:24:32;100954.97;;;4.18;100.00
53514;BME280;39768;54.148;12.174;2022-12-07T01:28:33;100941.94;;;4.24;100.00
53514;BME280;39768;54.148;12.174;2022-12-07T01:32:35;100947.78;;;4.06;100.00
53514;BME280;39768;54.148;12.174;2022-12-07T01:36:36;100936.25;;;3.97;100.00
53514;BME280;39768;54.148;12.174;2022-12-07T01:40:38;100932.56;;;3.87;100.00
53514;BME280;39768;54.148;12.174;2022-12-07T01:45:25;100925.06;;;4.10;100.00
53514;BME280;39768;54.148;12.174;2022-12-07T01:49:42;100924.19;;;4.09;100.00
53514;BME280;39768;54.148;12.174;2022-12-07T01:53:45;100917.94;;;4.00;100.00
53514;BME280;39768;54.148;12.174;2022-12-07T01:57:52;100918.69;;;3.94;100.00
53514;BME280;39768;54.148;12.174;2022-12-07T02:01:55;100914.03;;;3.76;100.00
53514;BME280;39768;54.148;12.174;2022-12-07T02:05:57;100919.34;;;3.79;100.00
53514;BME280;39768;54.148;12.174;2022-12-07T02:10:24;100906.56;;;4.02;100.00
53514;BME280;39768;54.148;12.174;2022-12-07T02:14:26;100898.47;;;3.88;100.00
53514;BME280;39768;54.148;12.174;2022-12-07T02:18:38;100890.06;;;4.11;100.00
53514;BME280;39768;54.148;12.174;2022-12-07T02:31:36;100867.38;;;4.14;100.00
53514;BME280;39768;54.148;12.174;2022-12-07T02:35:43;100867.88;;;3.90;100.00
53514;BME280;39768;54.148;12.174;2022-12-07T02:39:54;100860.38;;;4.18;100.00
53514;BME280;39768;54.148;12.174;2022-12-07T02:43:59;100857.16;;;4.37;100.00
53514;BME280;39768;54.148;12.174;2022-12-07T02:48:03;100863.00;;;4.18;100.00
53514;BME280;39768;54.148;12.174;2022-12-07T02:52:06;100850.19;;;4.39;100.00
53514;BME280;39768;54.148;12.174;2022-12-07T03:00:22;100855.50;;;4.47;100.00
53514;BME280;39768;54.148;12.174;2022-12-07T03:04:38;100844.69;;;4.22;100.00
53514;BME280;39768;54.148;12.174;2022-12-07T03:08:55;100849.00;;;4.17;100.00
53514;BME280;39768;54.148;12.174;2022-12-07T03:13:09;100832.34;;;4.17;100.00
53514;BME280;39768;54.148;12.174;2022-12-07T03:17:17;100826.97;;;4.08;100.00
53514;BME280;39768;54.148;12.174;2022-12-07T03:21:26;100822.22;;;4.46;100.00
53514;BME280;39768;54.148;12.174;2022-12-07T03:25:29;100816.16;;;4.51;100.00
53514;BME280;39768;54.148;12.174;2022-12-07T03:29:34;100819.78;;;4.59;100.00
53514;BME280;39768;54.148;12.174;2022-12-07T03:33:50;100816.75;;;4.29;100.00
53514;BME280;39768;54.148;12.174;2022-12-07T03:42:00;100806.13;;;4.20;100.00
53514;BME280;39768;54.148;12.174;2022-12-07T03:46:35;100795.78;;;4.34;100.00
53514;BME280;39768;54.148;12.174;2022-12-07T03:54:56;100790.63;;;3.76;100.00
53514;BME280;39768;54.148;12.174;2022-12-07T03:58:58;100780.59;;;4.10;100.00
53514;BME280;39768;54.148;12.174;2022-12-07T04:03:01;100771.06;;;4.19;100.00
53514;BME280;39768;54.148;12.174;2022-12-07T04:07:02;100762.47;;;4.31;100.00
53514;BME280;39768;54.148;12.174;2022-12-07T04:11:04;100765.19;;;4.39;100.00
53514;BME280;39768;54.148;12.174;2022-12-07T04:15:06;100767.00;;;4.43;100.00
53514;BME280;39768;54.148;12.174;2022-12-07T04:19:08;100750.34;;;4.45;100.00
53514;BME280;39768;54.148;12.174;2022-12-07T04:23:09;100760.84;;;4.42;100.00
53514;BME280;39768;54.148;12.174;2022-12-07T04:27:11;100763.44;;;4.39;100.00
53514;BME280;39768;54.148;12.174;2022-12-07T04:31:12;100763.50;;;4.42;100.00
53514;BME280;39768;54.148;12.174;2022-12-07T04:35:14;100767.81;;;4.39;100.00
53514;BME280;39768;54.148;12.174;2022-12-07T04:39:28;100762.63;;;4.43;100.00
53514;BME280;39768;54.148;12.174;2022-12-07T04:43:30;100762.59;;;4.40;100.00
53514;BME280;39768;54.148;12.174;2022-12-07T04:47:31;100761.00;;;4.54;100.00
53514;BME280;39768;54.148;12.174;2022-12-07T04:51:33;100755.66;;;4.48;100.00
53514;BME280;39768;54.148;12.174;2022-12-07T04:55:34;100762.63;;;4.43;100.00
53514;BME280;39768;54.148;12.174;2022-12-07T04:59:35;100768.63;;;4.35;100.00
53514;BME280;39768;54.148;12.174;2022-12-07T05:03:44;100770.47;;;4.40;100.00
53514;BME280;39768;54.148;12.174;2022-12-07T05:07:46;100764.31;;;4.38;100.00
53514;BME280;39768;54.148;12.174;2022-12-07T05:11:47;100754.56;;;4.31;100.00
53514;BME280;39768;54.148;12.174;2022-12-07T05:15:49;100756.31;;;4.31;100.00
53514;BME280;39768;54.148;12.174;2022-12-07T05:19:51;100757.19;;;4.31;100.00
53514;BME280;39768;54.148;12.174;2022-12-07T05:23:52;100750.91;;;4.15;100.00
53514;BME280;39768;54.148;12.174;2022-12-07T05:27:55;100754.34;;;4.11;100.00
53514;BME280;39768;54.148;12.174;2022-12-07T05:31:56;100748.16;;;4.08;100.00
53514;BME280;39768;54.148;12.174;2022-12-07T05:35:58;100743.19;;;4.29;100.00
53514;BME280;39768;54.148;12.174;2022-12-07T05:39:59;100745.06;;;4.41;100.00
53514;BME280;39768;54.148;12.174;2022-12-07T05:44:01;100742.38;;;4.36;100.00
53514;BME280;39768;54.148;12.174;2022-12-07T05:48:03;100736.09;;;4.23;100.00
53514;BME280;39768;54.148;12.174;2022-12-07T05:52:04;100744.09;;;4.33;100.00
53514;BME280;39768;54.148;12.174;2022-12-07T05:56:06;100734.38;;;4.25;100.00
53514;BME280;39768;54.148;12.174;2022-12-07T06:00:08;100730.13;;;4.37;100.00
53514;BME280;39768;54.148;12.174;2022-12-07T06:04:13;100736.34;;;4.43;100.00
53514;BME280;39768;54.148;12.174;2022-12-07T06:08:14;100723.34;;;4.57;100.00
53514;BME280;39768;54.148;12.174;2022-12-07T06:12:16;100733.88;;;4.58;100.00
53514;BME280;39768;54.148;12.174;2022-12-07T06:16:36;100726.88;;;4.60;100.00
53514;BME280;39768;54.148;12.174;2022-12-07T06:20:38;100735.63;;;4.61;100.00
53514;BME280;39768;54.148;12.174;2022-12-07T06:24:40;100732.84;;;4.44;100.00
53514;BME280;39768;54.148;12.174;2022-12-07T06:28:41;100732.13;;;4.57;100.00
53514;BME280;39768;54.148;12.174;2022-12-07T06:32:43;100734.59;;;4.47;100.00
53514;BME280;39768;54.148;12.174;2022-12-07T06:36:45;100734.78;;;4.64;100.00
53514;BME280;39768;54.148;12.174;2022-12-07T06:40:48;100742.59;;;4.56;100.00
53514;BME280;39768;54.148;12.174;2022-12-07T06:44:50;100738.28;;;4.59;100.00
53514;BME280;39768;54.148;12.174;2022-12-07T06:48:51;100738.34;;;4.67;100.00
53514;BME280;39768;54.148;12.174;2022-12-07T06:52:53;100731.25;;;4.61;100.00
53514;BME280;39768;54.148;12.174;2022-12-07T06:56:54;100745.88;;;4.37;100.00
53514;BME280;39768;54.148;12.174;2022-12-07T07:00:56;100735.19;;;4.21;100.00
53514;BME280;39768;54.148;12.174;2022-12-07T07:04:57;100735.34;;;4.34;100.00
53514;BME280;39768;54.148;12.174;2022-12-07T07:08:59;100738.88;;;4.36;100.00
53514;BME280;39768;54.148;12.174;2022-12-07T07:13:00;100742.47;;;4.45;100.00
53514;BME280;39768;54.148;12.174;2022-12-07T07:17:02;100743.56;;;4.66;100.00
53514;BME280;39768;54.148;12.174;2022-12-07T07:21:04;100741.19;;;4.88;100.00
53514;BME280;39768;54.148;12.174;2022-12-07T07:25:05;100739.59;;;5.10;100.00
53514;BME280;39768;54.148;12.174;2022-12-07T07:29:07;100744.91;;;5.13;100.00
53514;BME280;39768;54.148;12.174;2022-12-07T07:33:09;100724.69;;;5.09;100.00
53514;BME280;39768;54.148;12.174;2022-12-07T07:37:11;100728.28;;;5.17;100.00
53514;BME280;39768;54.148;12.174;2022-12-07T07:41:22;100737.00;;;5.12;100.00
53514;BME280;39768;54.148;12.174;2022-12-07T07:45:25;100736.13;;;5.13;100.00
53514;BME280;39768;54.148;12.174;2022-12-07T07:49:26;100741.13;;;4.84;100.00
53514;BME280;39768;54.148;12.174;2022-12-07T07:53:28;100750.00;;;4.95;100.00
53514;BME280;39768;54.148;12.174;2022-12-07T07:57:29;100749.22;;;5.04;100.00
53514;BME280;39768;54.148;12.174;2022-12-07T08:01:31;100747.47;;;5.04;100.00
53514;BME280;39768;54.148;12.174;2022-12-07T08:05:32;100738.84;;;5.25;100.00
53514;BME280;39768;54.148;12.174;2022-12-07T08:09:34;100730.81;;;5.07;100.00
53514;BME280;39768;54.148;12.174;2022-12-07T08:13:37;100732.53;;;5.05;100.00
53514;BME280;39768;54.148;12.174;2022-12-07T08:17:38;100723.94;;;5.24;100.00
53514;BME280;39768;54.148;12.174;2022-12-07T08:21:39;100720.56;;;5.43;100.00
53514;BME280;39768;54.148;12.174;2022-12-07T08:25:41;100726.78;;;5.54;100.00
53514;BME280;39768;54.148;12.174;2022-12-07T08:29:42;100718.09;;;5.72;100.00
53514;BME280;39768;54.148;12.174;2022-12-07T08:33:46;100715.34;;;5.54;100.00
53514;BME280;39768;54.148;12.174;2022-12-07T08:37:47;100705.75;;;5.59;100.00
53514;BME280;39768;54.148;12.174;2022-12-07T08:41:49;100704.75;;;5.42;100.00
53514;BME280;39768;54.148;12.174;2022-12-07T08:46:06;100704.00;;;5.61;100.00
53514;BME280;39768;54.148;12.174;2022-12-07T08:50:09;100702.47;;;5.93;100.00
53514;BME280;39768;54.148;12.174;2022-12-07T08:54:15;100702.38;;;5.87;100.00
53514;BME280;39768;54.148;12.174;2022-12-07T08:58:18;100706.88;;;6.10;100.00
53514;BME280;39768;54.148;12.174;2022-12-07T09:02:19;100708.59;;;5.92;100.00
53514;BME280;39768;54.148;12.174;2022-12-07T09:06:21;100709.50;;;6.00;100.00
53514;BME280;39768;54.148;12.174;2022-12-07T09:10:23;100719.84;;;5.68;100.00
53514;BME280;39768;54.148;12.174;2022-12-07T09:14:24;100719.81;;;5.64;100.00
53514;BME280;39768;54.148;12.174;2022-12-07T09:18:26;100711.03;;;5.65;100.00
53514;BME280;39768;54.148;12.174;2022-12-07T09:22:29;100709.34;;;5.76;100.00
53514;BME280;39768;54.148;12.174;2022-12-07T09:26:34;100707.81;;;6.19;100.00
53514;BME280;39768;54.148;12.174;2022-12-07T09:30:37;100714.88;;;6.22;100.00
53514;BME280;39768;54.148;12.174;2022-12-07T09:34:59;100704.38;;;6.54;100.00
53514;BME280;39768;54.148;12.174;2022-12-07T09:39:01;100706.94;;;6.20;100.00
53514;BME280;39768;54.148;12.174;2022-12-07T09:43:02;100693.84;;;6.58;100.00
53514;BME280;39768;54.148;12.174;2022-12-07T09:47:04;100692.00;;;6.24;100.00
53514;BME280;39768;54.148;12.174;2022-12-07T09:51:22;100695.47;;;6.05;100.00
53514;BME280;39768;54.148;12.174;2022-12-07T09:55:28;100681.38;;;5.99;100.00
53514;BME280;39768;54.148;12.174;2022-12-07T09:59:30;100684.06;;;6.13;100.00
53514;BME280;39768;54.148;12.174;2022-12-07T10:03:38;100678.00;;;6.37;100.00
53514;BME280;39768;54.148;12.174;2022-12-07T10:07:40;100667.44;;;6.45;100.00
53514;BME280;39768;54.148;12.174;2022-12-07T10:12:17;100667.50;;;6.90;100.00
53514;BME280;39768;54.148;12.174;2022-12-07T10:16:28;100663.91;;;6.32;100.00
53514;BME280;39768;54.148;12.174;2022-12-07T10:20:32;100662.22;;;6.52;100.00
53514;BME280;39768;54.148;12.174;2022-12-07T10:24:34;100654.28;;;6.51;100.00
53514;BME280;39768;54.148;12.174;2022-12-07T10:28:36;100657.78;;;6.54;100.00
53514;BME280;39768;54.148;12.174;2022-12-07T10:32:42;100659.59;;;6.64;100.00
53514;BME280;39768;54.148;12.174;2022-12-07T10:36:44;100665.59;;;6.04;100.00
53514;BME280;39768;54.148;12.174;2022-12-07T10:40:45;100653.13;;;5.68;96.38
53514;BME280;39768;54.148;12.174;2022-12-07T10:44:48;100650.41;;;5.54;88.08
53514;BME280;39768;54.148;12.174;2022-12-07T10:49:44;100654.84;;;5.66;93.01
53514;BME280;39768;54.148;12.174;2022-12-07T10:54:01;100653.03;;;5.51;93.93
53514;BME280;39768;54.148;12.174;2022-12-07T10:58:30;100646.97;;;5.63;93.38
53514;BME280;39768;54.148;12.174;2022-12-07T11:03:05;100639.06;;;5.63;88.98
53514;BME280;39768;54.148;12.174;2022-12-07T11:12:05;100632.13;;;5.86;87.16
53514;BME280;39768;54.148;12.174;2022-12-07T11:16:48;100620.78;;;6.01;89.54
53514;BME280;39768;54.148;12.174;2022-12-07T11:21:06;100629.47;;;5.79;91.01
53514;BME280;39768;54.148;12.174;2022-12-07T11:25:15;100625.06;;;5.79;90.18
53514;BME280;39768;54.148;12.174;2022-12-07T11:29:33;100620.59;;;5.58;82.93
53514;BME280;39768;54.148;12.174;2022-12-07T11:33:53;100620.84;;;6.19;95.32
53514;BME280;39768;54.148;12.174;2022-12-07T11:38:26;100603.22;;;5.92;91.56
53514;BME280;39768;54.148;12.174;2022-12-07T11:42:36;100605.84;;;5.92;93.34
53514;BME280;39768;54.148;12.174;2022-12-07T11:46:55;100604.09;;;6.10;90.37
53514;BME280;39768;54.148;12.174;2022-12-07T11:50:59;100604.13;;;6.16;91.05
53514;BME280;39768;54.148;12.174;2022-12-07T11:55:03;100595.28;;;5.95;90.22
53514;BME280;39768;54.148;12.174;2022-12-07T11:59:21;100592.66;;;5.89;88.29
53514;BME280;39768;54.148;12.174;2022-12-07T12:03:30;100590.06;;;6.06;90.03
53514;BME280;39768;54.148;12.174;2022-12-07T12:07:33;100576.00;;;6.09;89.89
53514;BME280;39768;54.148;12.174;2022-12-07T12:21:13;100579.38;;;5.62;95.19
53514;BME280;39768;54.148;12.174;2022-12-07T12:25:29;100585.53;;;5.70;97.22
53514;BME280;39768;54.148;12.174;2022-12-07T12:29:36;100586.41;;;5.61;93.32
53514;BME280;39768;54.148;12.174;2022-12-07T12:33:43;100582.94;;;5.76;95.36
53514;BME280;39768;54.148;12.174;2022-12-07T12:37:47;100585.56;;;5.78;93.00
53514;BME280;39768;54.148;12.174;2022-12-07T12:41:54;100567.09;;;5.67;89.17
53514;BME280;39768;54.148;12.174;2022-12-07T12:50:37;100561.94;;;5.90;92.59
53514;BME280;39768;54.148;12.174;2022-12-07T12:54:58;100552.19;;;5.75;92.83
53514;BME280;39768;54.148;12.174;2022-12-07T12:59:29;100556.56;;;5.79;95.30
53514;BME280;39768;54.148;12.174;2022-12-07T13:03:31;100561.84;;;5.70;97.22
53514;BME280;39768;54.148;12.174;2022-12-07T13:11:46;100566.09;;;5.33;100.00
53514;BME280;39768;54.148;12.174;2022-12-07T13:19:54;100566.09;;;5.31;100.00
53514;BME280;39768;54.148;12.174;2022-12-07T13:23:57;100570.50;;;5.40;99.69
53514;BME280;39768;54.148;12.174;2022-12-07T13:28:09;100577.50;;;5.37;100.00
53514;BME280;39768;54.148;12.174;2022-12-07T13:32:24;100557.28;;;5.28;100.00
53514;BME280;39768;54.148;12.174;2022-12-07T13:36:29;100576.59;;;5.31;99.67
53514;BME280;39768;54.148;12.174;2022-12-07T13:40:36;100564.38;;;5.46;93.65
53514;BME280;39768;54.148;12.174;2022-12-07T13:44:40;100567.84;;;5.34;95.04
53514;BME280;39768;54.148;12.174;2022-12-07T13:52:46;100581.00;;;5.32;100.00
53514;BME280;39768;54.148;12.174;2022-12-07T13:56:53;100569.53;;;5.17;100.00
53514;BME280;39768;54.148;12.174;2022-12-07T14:00:55;100577.44;;;5.23;98.83
53514;BME280;39768;54.148;12.174;2022-12-07T14:09:24;100595.66;;;4.88;100.00
53514;BME280;39768;54.148;12.174;2022-12-07T14:13:37;100567.66;;;4.99;100.00
53514;BME280;39768;54.148;12.174;2022-12-07T14:17:54;100561.63;;;5.15;100.00
53514;BME280;39768;54.148;12.174;2022-12-07T14:22:07;100580.09;;;5.26;100.00
53514;BME280;39768;54.148;12.174;2022-12-07T14:26:18;100586.19;;;5.17;100.00
53514;BME280;39768;54.148;12.174;2022-12-07T14:30:20;100582.59;;;5.03;100.00
53514;BME280;39768;54.148;12.174;2022-12-07T14:34:25;100592.13;;;4.87;100.00
53514;BME280;39768;54.148;12.174;2022-12-07T14:38:26;100602.69;;;4.89;100.00
53514;BME280;39768;54.148;12.174;2022-12-07T14:42:29;100596.53;;;4.87;100.00
53514;BME280;39768;54.148;12.174;2022-12-07T14:46:31;100581.75;;;5.10;100.00
53514;BME280;39768;54.148;12.174;2022-12-07T14:50:37;100588.78;;;5.11;100.00
53514;BME280;39768;54.148;12.174;2022-12-07T14:54:38;100601.09;;;5.23;100.00
53514;BME280;39768;54.148;12.174;2022-12-07T14:58:40;100604.50;;;5.05;100.00
53514;BME280;39768;54.148;12.174;2022-12-07T15:25:17;100596.69;;;5.14;100.00
53514;BME280;39768;54.148;12.174;2022-12-07T15:29:19;100602.75;;;5.06;100.00
53514;BME280;39768;54.148;12.174;2022-12-07T15:33:24;100610.63;;;5.01;100.00
53514;BME280;39768;54.148;12.174;2022-12-07T15:37:25;100606.25;;;5.02;100.00
53514;BME280;39768;54.148;12.174;2022-12-07T15:41:26;100611.47;;;4.95;100.00
53514;BME280;39768;54.148;12.174;2022-12-07T15:45:28;100627.91;;;4.69;100.00
53514;BME280;39768;54.148;12.174;2022-12-07T15:49:29;100626.91;;;4.53;100.00
53514;BME280;39768;54.148;12.174;2022-12-07T15:53:31;100622.69;;;4.72;100.00
53514;BME280;39768;54.148;12.174;2022-12-07T15:57:35;100625.31;;;4.70;100.00
53514;BME280;39768;54.148;12.174;2022-12-07T16:01:38;100625.22;;;4.59;100.00
53514;BME280;39768;54.148;12.174;2022-12-07T16:05:39;100624.34;;;4.60;100.00
53514;BME280;39768;54.148;12.174;2022-12-07T16:09:45;100633.97;;;4.58;100.00
53514;BME280;39768;54.148;12.174;2022-12-07T16:13:47;100628.00;;;4.78;100.00
53514;BME280;39768;54.148;12.174;2022-12-07T16:17:48;100634.06;;;4.69;100.00
53514;BME280;39768;54.148;12.174;2022-12-07T16:21:49;100637.53;;;4.65;100.00
53514;BME280;39768;54.148;12.174;2022-12-07T16:25:51;100646.31;;;4.67;100.00
53514;BME280;39768;54.148;12.174;2022-12-07T16:29:53;100644.47;;;4.57;100.00
53514;BME280;39768;54.148;12.174;2022-12-07T16:33:56;100639.03;;;4.39;100.00
53514;BME280;39768;54.148;12.174;2022-12-07T16:37:58;100635.56;;;4.41;100.00
53514;BME280;39768;54.148;12.174;2022-12-07T16:41:59;100651.38;;;4.43;100.00
53514;BME280;39768;54.148;12.174;2022-12-07T16:46:02;100649.56;;;4.40;100.00
53514;BME280;39768;54.148;12.174;2022-12-07T16:50:04;100646.09;;;4.41;100.00
53514;BME280;39768;54.148;12.174;2022-12-07T16:54:06;100644.34;;;4.42;100.00
53514;BME280;39768;54.148;12.174;2022-12-07T16:58:07;100646.28;;;4.64;100.00
53514;BME280;39768;54.148;12.174;2022-12-07T17:02:11;100652.66;;;4.89;100.00
53514;BME280;39768;54.148;12.174;2022-12-07T17:06:18;100645.50;;;4.76;100.00
53514;BME280;39768;54.148;12.174;2022-12-07T17:10:20;100660.25;;;4.60;100.00
53514;BME280;39768;54.148;12.174;2022-12-07T17:14:22;100655.94;;;4.67;100.00
53514;BME280;39768;54.148;12.174;2022-12-07T17:18:42;100663.03;;;4.75;100.00
53514;BME280;39768;54.148;12.174;2022-12-07T17:22:44;100667.38;;;4.70;100.00
53514;BME280;39768;54.148;12.174;2022-12-07T17:26:46;100670.72;;;4.54;100.00
53514;BME280;39768;54.148;12.174;2022-12-07T17:30:48;100675.91;;;4.43;100.00
53514;BME280;39768;54.148;12.174;2022-12-07T17:34:49;100676.00;;;4.54;100.00
53514;BME280;39768;54.148;12.174;2022-12-07T17:38:51;100679.44;;;4.48;100.00
53514;BME280;39768;54.148;12.174;2022-12-07T17:42:53;100680.28;;;4.47;100.00
53514;BME280;39768;54.148;12.174;2022-12-07T17:46:55;100683.00;;;4.55;100.00
53514;BME280;39768;54.148;12.174;2022-12-07T17:51:03;100683.78;;;4.46;100.00
53514;BME280;39768;54.148;12.174;2022-12-07T17:55:23;100692.59;;;4.51;100.00
53514;BME280;39768;54.148;12.174;2022-12-07T17:59:25;100670.66;;;4.48;100.00
53514;BME280;39768;54.148;12.174;2022-12-07T18:03:26;100682.16;;;4.57;100.00
53514;BME280;39768;54.148;12.174;2022-12-07T18:07:28;100674.00;;;4.29;100.00
53514;BME280;39768;54.148;12.174;2022-12-07T18:11:30;100687.25;;;4.41;100.00
53514;BME280;39768;54.148;12.174;2022-12-07T18:15:32;100683.91;;;4.55;100.00
53514;BME280;39768;54.148;12.174;2022-12-07T18:19:34;100680.25;;;4.41;100.00
53514;BME280;39768;54.148;12.174;2022-12-07T19:11:30;100697.25;;;3.32;100.00
53514;BME280;39768;54.148;12.174;2022-12-07T19:15:50;100695.81;;;3.53;100.00
53514;BME280;39768;54.148;12.174;2022-12-07T19:19:52;100696.06;;;3.73;100.00
53514;BME280;39768;54.148;12.174;2022-12-07T19:23:54;100688.16;;;3.69;100.00
53514;BME280;39768;54.148;12.174;2022-12-07T19:27:56;100693.44;;;3.73;100.00
53514;BME280;39768;54.148;12.174;2022-12-07T19:31:59;100691.97;;;3.94;100.00
53514;BME280;39768;54.148;12.174;2022-12-07T19:36:01;100695.50;;;3.96;100.00
53514;BME280;39768;54.148;12.174;2022-12-07T19:40:04;100699.91;;;4.01;100.00
53514;BME280;39768;54.148;12.174;2022-12-07T19:44:08;100693.09;;;4.17;100.00
53514;BME280;39768;54.148;12.174;2022-12-07T19:48:11;100691.34;;;4.17;100.00
53514;BME280;39768;54.148;12.174;2022-12-07T19:52:13;100687.19;;;4.36;100.00
53514;BME280;39768;54.148;12.174;2022-12-07T19:56:16;100691.78;;;4.55;99.83
53514;BME280;39768;54.148;12.174;2022-12-07T20:00:18;100697.06;;;4.58;99.47
53514;BME280;39768;54.148;12.174;2022-12-07T20:04:22;100690.94;;;4.58;99.50
53514;BME280;39768;54.148;12.174;2022-12-07T20:08:24;100691.78;;;4.55;100.00
53514;BME280;39768;54.148;12.174;2022-12-07T20:12:26;100688.31;;;4.59;99.00
53514;BME280;39768;54.148;12.174;2022-12-07T20:16:46;100690.88;;;4.52;98.27
53514;BME280;39768;54.148;12.174;2022-12-07T20:20:55;100690.81;;;4.44;96.75
53514;BME280;39768;54.148;12.174;2022-12-07T20:24:57;100694.47;;;4.65;96.31
53514;BME280;39768;54.148;12.174;2022-12-07T20:28:59;100697.84;;;4.50;95.56
53514;BME280;39768;54.148;12.174;2022-12-07T20:33:08;100700.41;;;4.42;96.39
53514;BME280;39768;54.148;12.174;2022-12-07T20:37:10;100691.59;;;4.37;95.11
53514;BME280;39768;54.148;12.174;2022-12-07T20:41:13;100690.75;;;4.41;95.67
53514;BME280;39768;54.148;12.174;2022-12-07T20:45:33;100681.00;;;4.30;96.59
53514;BME280;39768;54.148;12.174;2022-12-07T20:49:35;100681.69;;;4.12;98.57
53514;BME280;39768;54.148;12.174;2022-12-07T20:53:36;100687.00;;;4.19;95.92
53514;BME280;39768;54.148;12.174;2022-12-07T20:57:38;100694.97;;;4.25;94.73
53514;BME280;39768;54.148;12.174;2022-12-07T21:01:39;100684.53;;;4.33;93.90
53514;BME280;39768;54.148;12.174;2022-12-07T21:05:41;100685.50;;;4.41;93.67
53514;BME280;39768;54.148;12.174;2022-12-07T21:09:51;100687.28;;;4.42;94.66
53514;BME280;39768;54.148;12.174;2022-12-07T21:13:53;100689.09;;;4.51;94.22
53514;BME280;39768;54.148;12.174;2022-12-07T21:17:54;100689.28;;;4.71;93.35
53514;BME280;39768;54.148;12.174;2022-12-07T21:21:56;100689.19;;;4.61;94.89
53514;BME280;39768;54.148;12.174;2022-12-07T21:25:57;100690.84;;;4.50;95.88
53514;BME280;39768;54.148;12.174;2022-12-07T21:29:59;100691.63;;;4.40;96.32
53514;BME280;39768;54.148;12.174;2022-12-07T21:34:02;100690.91;;;4.55;97.03
53514;BME280;39768;54.148;12.174;2022-12-07T21:38:04;100689.13;;;4.52;96.35
53514;BME280;39768;54.148;12.174;2022-12-07T21:42:05;100683.78;;;4.46;95.98
53514;BME280;39768;54.148;12.174;2022-12-07T21:46:07;100685.63;;;4.53;96.45
53514;BME280;39768;54.148;12.174;2022-12-07T21:50:09;100682.09;;;4.51;98.21
53514;BME280;39768;54.148;12.174;2022-12-07T21:54:11;100680.31;;;4.49;97.43
53514;BME280;39768;54.148;12.174;2022-12-07T21:58:12;100683.75;;;4.42;99.11
53514;BME280;39768;54.148;12.174;2022-12-07T22:02:14;100678.16;;;4.10;100.00
53514;BME280;39768;54.148;12.174;2022-12-07T22:06:18;100672.06;;;4.14;100.00
53514;BME280;39768;54.148;12.174;2022-12-07T22:10:20;100667.59;;;4.05;100.00
53514;BME280;39768;54.148;12.174;2022-12-07T22:14:30;100674.06;;;3.62;100.00
53514;BME280;39768;54.148;12.174;2022-12-07T22:18:51;100671.75;;;3.88;100.00
53514;BME280;39768;54.148;12.174;2022-12-07T22:22:52;100664.50;;;3.66;100.00
53514;BME280;39768;54.148;12.174;2022-12-07T22:26:53;100671.75;;;3.88;100.00
53514;BME280;39768;54.148;12.174;2022-12-07T22:31:01;100671.91;;;3.99;100.00
53514;BME280;39768;54.148;12.174;2022-12-07T22:35:03;100665.03;;;4.10;100.00
53514;BME280;39768;54.148;12.174;2022-12-07T22:39:05;100662.13;;;3.85;100.00
53514;BME280;39768;54.148;12.174;2022-12-07T22:43:07;100657.75;;;3.89;100.00
53514;BME280;39768;54.148;12.174;2022-12-07T22:47:08;100660.34;;;3.84;100.00
53514;BME280;39768;54.148;12.174;2022-12-07T22:51:24;100654.00;;;3.66;100.00
53514;BME280;39768;54.148;12.174;2022-12-07T22:55:26;100650.22;;;3.47;100.00
53514;BME280;39768;54.148;12.174;2022-12-07T22:59:27;100653.63;;;3.38;100.00
53514;BME280;39768;54.148;12.174;2022-12-07T23:03:29;100644.03;;;3.42;100.00
53514;BME280;39768;54.148;12.174;2022-12-07T23:07:30;100644.13;;;3.48;100.00
53514;BME280;39768;54.148;12.174;2022-12-07T23:11:35;100636.22;;;3.45;100.00
53514;BME280;39768;54.148;12.174;2022-12-07T23:15:55;100631.75;;;3.38;100.00
53514;BME280;39768;54.148;12.174;2022-12-07T23:19:57;100625.59;;;3.36;100.00